createdAt,value
2023-04-30T00:00:08.844Z,5.20
2023-04-30T00:02:38.112Z,4.93
2023-04-30T00:05:07.271Z,6.38
2023-04-30T00:07:42.596Z,5.20
2023-04-30T00:10:12.467Z,5.78
2023-04-30T00:12:41.702Z,4.45
2023-04-30T00:15:11.723Z,6.85
2023-04-30T00:17:40.190Z,5.30
2023-04-30T00:20:10.120Z,5.32
2023-04-30T00:22:40.251Z,5.47
2023-04-30T00:25:09.961Z,5.95
2023-04-30T00:27:40.756Z,5.70
2023-04-30T00:30:10.004Z,4.90
2023-04-30T00:32:38.336Z,5.13
2023-04-30T00:35:07.661Z,5.45
2023-04-30T00:37:36.132Z,5.65
2023-04-30T00:40:06.908Z,5.43
2023-04-30T00:42:35.347Z,5.40
2023-04-30T00:45:03.930Z,5.05
2023-04-30T00:47:32.964Z,5.80
2023-04-30T00:50:02.110Z,5.25
2023-04-30T00:52:30.943Z,5.72
2023-04-30T00:54:59.822Z,5.47
2023-04-30T00:57:30.050Z,5.13
2023-04-30T00:59:59.118Z,5.57
2023-04-30T01:02:27.467Z,6.05
2023-04-30T01:04:57.532Z,5.63
2023-04-30T01:07:28.515Z,5.53
2023-04-30T01:09:57.185Z,5.65
2023-04-30T01:12:36.955Z,5.70
2023-04-30T01:15:12.487Z,5.00
2023-04-30T01:17:49.203Z,5.63
2023-04-30T01:20:17.504Z,5.75
2023-04-30T01:22:52.705Z,6.07
2023-04-30T01:25:42.201Z,5.72
2023-04-30T01:28:16.076Z,5.80
2023-04-30T01:30:46.450Z,5.32
2023-04-30T01:33:15.797Z,5.57
2023-04-30T01:36:07.945Z,6.47
2023-04-30T01:38:50.991Z,6.40
2023-04-30T01:41:27.735Z,6.15
2023-04-30T01:44:26.450Z,6.72
2023-04-30T01:47:02.765Z,7.13
2023-04-30T01:49:39.950Z,6.50
2023-04-30T01:52:18.234Z,7.18
2023-04-30T01:54:50.494Z,5.65
2023-04-30T01:57:23.820Z,6.30
2023-04-30T01:59:54.795Z,6.15
2023-04-30T02:02:23.666Z,6.45
2023-04-30T02:04:51.944Z,6.18
2023-04-30T02:07:35.117Z,6.72
2023-04-30T02:10:03.805Z,7.10
2023-04-30T02:12:31.797Z,7.00
2023-04-30T02:15:01.325Z,6.85
2023-04-30T02:17:29.687Z,6.10
2023-04-30T02:19:58.206Z,7.43
2023-04-30T02:22:26.725Z,7.13
2023-04-30T02:24:56.098Z,6.70
2023-04-30T02:27:27.699Z,7.70
2023-04-30T02:29:56.657Z,8.00
2023-04-30T02:32:27.051Z,7.50
2023-04-30T02:34:55.567Z,8.02
2023-04-30T02:37:24.093Z,7.45
2023-04-30T02:39:52.772Z,7.68
2023-04-30T02:42:21.162Z,7.57
2023-04-30T02:44:49.707Z,7.47
2023-04-30T02:47:18.093Z,6.90
2023-04-30T02:49:48.139Z,6.43
2023-04-30T02:52:16.510Z,7.07
2023-04-30T02:54:45.284Z,6.70
2023-04-30T02:57:13.946Z,7.15
2023-04-30T02:59:45.995Z,6.07
2023-04-30T03:02:14.412Z,6.60
2023-04-30T03:04:42.901Z,6.38
2023-04-30T03:07:12.838Z,6.50
2023-04-30T03:09:41.318Z,7.28
2023-04-30T03:12:09.502Z,6.90
2023-04-30T03:14:38.055Z,6.97
2023-04-30T03:17:06.340Z,6.43
2023-04-30T03:19:35.716Z,6.45
2023-04-30T03:22:04.165Z,6.10
2023-04-30T03:24:34.180Z,6.50
2023-04-30T03:27:02.294Z,7.20
2023-04-30T03:29:31.069Z,6.18
2023-04-30T03:31:59.297Z,7.13
2023-04-30T03:34:28.033Z,7.65
2023-04-30T03:36:56.561Z,7.57
2023-04-30T03:39:24.893Z,6.70
2023-04-30T03:41:54.819Z,6.57
2023-04-30T03:44:23.299Z,7.07
2023-04-30T03:46:51.702Z,7.10
2023-04-30T03:49:19.869Z,5.80
2023-04-30T03:51:48.145Z,7.05
2023-04-30T03:54:16.426Z,6.50
2023-04-30T03:56:44.723Z,6.80
2023-04-30T03:59:14.537Z,6.60
2023-04-30T04:01:42.901Z,6.07
2023-04-30T04:04:11.778Z,7.80
2023-04-30T04:06:40.226Z,6.80
2023-04-30T04:09:08.876Z,6.45
2023-04-30T04:11:37.477Z,7.00
2023-04-30T04:14:05.861Z,7.28
2023-04-30T04:16:35.629Z,7.13
2023-04-30T04:19:04.784Z,6.57
2023-04-30T04:21:33.683Z,7.70
2023-04-30T04:24:08.648Z,6.93
2023-04-30T04:26:37.654Z,6.57
2023-04-30T04:29:06.128Z,7.40
2023-04-30T04:31:36.176Z,8.40
2023-04-30T04:34:05.935Z,6.90
2023-04-30T04:36:34.340Z,7.43
2023-04-30T04:39:03.285Z,8.38
2023-04-30T04:41:33.225Z,7.72
2023-04-30T04:44:02.085Z,7.15
2023-04-30T04:46:31.909Z,6.68
2023-04-30T04:49:02.251Z,6.25
2023-04-30T04:51:30.342Z,7.53
2023-04-30T04:53:58.622Z,7.43
2023-04-30T04:56:27.200Z,6.63
2023-04-30T04:58:55.284Z,7.03
2023-04-30T05:01:23.548Z,7.25
2023-04-30T05:03:54.278Z,6.63
2023-04-30T05:06:24.311Z,6.25
2023-04-30T05:08:52.482Z,6.03
2023-04-30T05:11:22.085Z,6.82
2023-04-30T05:13:50.757Z,6.80
2023-04-30T05:16:18.956Z,6.90
2023-04-30T05:18:48.859Z,7.15
2023-04-30T05:21:17.563Z,6.45
2023-04-30T05:23:47.601Z,6.90
2023-04-30T05:26:15.992Z,6.93
2023-04-30T05:28:44.266Z,7.32
2023-04-30T05:31:12.508Z,7.95
2023-04-30T05:33:41.325Z,7.03
2023-04-30T05:36:09.933Z,6.70
2023-04-30T05:38:38.248Z,6.10
2023-04-30T05:41:08.143Z,7.10
2023-04-30T05:43:36.366Z,6.47
2023-04-30T05:46:04.643Z,7.10
2023-04-30T05:48:33.230Z,6.63
2023-04-30T05:51:01.547Z,6.95
2023-04-30T05:53:30.109Z,5.93
2023-04-30T05:55:58.724Z,6.55
2023-04-30T05:58:28.619Z,6.95
2023-04-30T06:00:57.974Z,6.05
2023-04-30T06:03:26.349Z,6.53
2023-04-30T06:05:55.377Z,6.68
2023-04-30T06:08:23.724Z,6.60
2023-04-30T06:10:52.701Z,7.07
2023-04-30T06:13:21.226Z,6.35
2023-04-30T06:15:51.228Z,7.70
2023-04-30T06:18:20.527Z,6.25
2023-04-30T06:20:48.798Z,6.75
2023-04-30T06:23:17.711Z,6.22
2023-04-30T06:25:46.220Z,7.53
2023-04-30T06:28:14.497Z,7.03
2023-04-30T06:30:42.888Z,7.07
2023-04-30T06:33:12.595Z,6.65
2023-04-30T06:35:41.978Z,6.63
2023-04-30T06:38:10.506Z,6.93
2023-04-30T06:40:39.477Z,7.57
2023-04-30T06:43:08.439Z,7.05
2023-04-30T06:45:44.053Z,5.80
2023-04-30T06:48:15.909Z,6.13
2023-04-30T06:50:46.017Z,6.30
2023-04-30T06:53:15.094Z,6.55
2023-04-30T06:55:43.771Z,5.55
2023-04-30T06:58:11.953Z,6.68
2023-04-30T07:00:40.935Z,6.03
2023-04-30T07:03:09.418Z,6.05
2023-04-30T07:05:39.409Z,6.28
2023-04-30T07:08:08.800Z,5.93
2023-04-30T07:10:37.966Z,6.30
2023-04-30T07:13:07.795Z,6.63
2023-04-30T07:15:36.495Z,6.80
2023-04-30T07:18:05.277Z,5.80
2023-04-30T07:20:35.330Z,6.63
2023-04-30T07:23:05.618Z,5.70
2023-04-30T07:25:33.887Z,5.80
2023-04-30T07:28:02.012Z,6.32
2023-04-30T07:30:30.570Z,5.30
2023-04-30T07:32:58.784Z,5.18
2023-04-30T07:35:27.483Z,6.00
2023-04-30T07:37:56.579Z,5.70
2023-04-30T07:40:35.848Z,6.53
2023-04-30T07:43:05.705Z,5.57
2023-04-30T07:45:35.821Z,5.35
2023-04-30T07:48:04.737Z,5.50
2023-04-30T07:50:34.879Z,5.97
2023-04-30T07:53:03.906Z,5.07
2023-04-30T07:55:33.456Z,5.50
2023-04-30T07:58:02.574Z,5.03
2023-04-30T08:00:31.440Z,5.22
2023-04-30T08:03:01.110Z,4.82
2023-04-30T08:05:29.721Z,4.88
2023-04-30T08:07:58.252Z,4.63
2023-04-30T08:10:27.330Z,5.95
2023-04-30T08:12:57.649Z,4.72
2023-04-30T08:15:27.066Z,4.90
2023-04-30T08:17:57.562Z,4.70
2023-04-30T08:20:26.524Z,4.10
2023-04-30T08:22:55.038Z,4.43
2023-04-30T08:25:25.683Z,3.95
2023-04-30T08:27:54.520Z,3.78
2023-04-30T08:30:25.120Z,4.70
2023-04-30T08:32:55.972Z,4.25
2023-04-30T08:35:26.297Z,4.38
2023-04-30T08:37:55.296Z,4.20
2023-04-30T08:40:43.366Z,3.42
2023-04-30T08:43:17.705Z,3.22
2023-04-30T08:45:47.567Z,2.70
2023-04-30T08:48:17.195Z,2.83
2023-04-30T08:50:46.110Z,3.13
2023-04-30T08:53:17.520Z,3.55
2023-04-30T08:55:46.829Z,3.38
2023-04-30T08:58:15.810Z,3.25
2023-04-30T09:00:44.842Z,3.45
2023-04-30T09:03:15.757Z,3.15
2023-04-30T09:05:44.377Z,2.95
2023-04-30T09:08:20.848Z,2.42
2023-04-30T09:10:50.011Z,1.98
2023-04-30T09:13:18.906Z,1.98
2023-04-30T09:15:53.552Z,2.10
2023-04-30T09:18:23.896Z,1.88
2023-04-30T09:20:57.697Z,1.85
2023-04-30T09:23:27.597Z,1.80
2023-04-30T09:25:56.789Z,2.40
2023-04-30T09:28:27.718Z,2.55
2023-04-30T09:30:58.366Z,2.42
2023-04-30T09:33:28.636Z,2.10
2023-04-30T09:35:57.793Z,2.10
2023-04-30T09:38:30.798Z,2.08
2023-04-30T09:41:01.730Z,2.70
2023-04-30T09:43:31.263Z,2.40
2023-04-30T09:46:02.496Z,2.75
2023-04-30T09:48:33.202Z,2.30
2023-04-30T09:51:05.486Z,2.35
2023-04-30T09:53:36.049Z,2.53
2023-04-30T09:56:08.619Z,2.25
2023-04-30T09:58:39.454Z,2.33
2023-04-30T10:01:11.486Z,2.20
2023-04-30T10:03:43.098Z,2.38
2023-04-30T10:06:15.976Z,2.35
2023-04-30T10:08:45.898Z,2.60
2023-04-30T10:11:18.355Z,2.28
2023-04-30T10:13:53.218Z,2.75
2023-04-30T10:16:29.883Z,2.40
2023-04-30T10:19:05.528Z,2.30
2023-04-30T10:21:34.326Z,2.70
2023-04-30T10:24:04.725Z,3.05
2023-04-30T10:26:35.155Z,2.30
2023-04-30T10:29:06.452Z,2.53
2023-04-30T10:31:35.777Z,2.22
2023-04-30T10:34:15.607Z,2.83
2023-04-30T10:36:49.011Z,2.45
2023-04-30T10:39:20.888Z,2.25
2023-04-30T10:41:49.818Z,2.72
2023-04-30T10:44:24.746Z,2.47
2023-04-30T10:47:00.870Z,2.10
2023-04-30T10:49:31.376Z,2.50
2023-04-30T10:52:02.097Z,2.10
2023-04-30T10:54:32.692Z,2.35
2023-04-30T10:57:14.947Z,1.83
2023-04-30T10:59:53.202Z,1.80
2023-04-30T11:02:22.103Z,1.95
2023-04-30T11:05:15.305Z,1.90
2023-04-30T11:07:51.012Z,2.00
2023-04-30T11:10:23.468Z,1.83
2023-04-30T11:12:53.515Z,2.05
2023-04-30T11:15:25.916Z,1.60
2023-04-30T11:17:59.200Z,1.40
2023-04-30T11:20:30.340Z,1.27
2023-04-30T11:23:24.972Z,1.40
2023-04-30T11:25:57.901Z,1.83
2023-04-30T11:28:27.824Z,1.35
2023-04-30T11:30:58.668Z,1.35
2023-04-30T11:33:28.987Z,1.25
2023-04-30T11:36:01.213Z,1.30
2023-04-30T11:38:30.757Z,1.65
2023-04-30T11:41:00.971Z,1.52
2023-04-30T11:43:31.433Z,1.52
2023-04-30T11:46:06.882Z,1.20
2023-04-30T11:48:36.355Z,1.27
2023-04-30T11:51:15.283Z,1.20
2023-04-30T11:53:44.543Z,1.45
2023-04-30T11:56:13.214Z,1.80
2023-04-30T11:58:42.341Z,1.23
2023-04-30T12:01:11.790Z,1.15
2023-04-30T12:03:44.206Z,1.10
2023-04-30T12:06:23.463Z,1.27
2023-04-30T12:08:56.116Z,1.30
2023-04-30T12:11:26.629Z,1.17
2023-04-30T12:13:56.043Z,1.48
2023-04-30T12:16:26.512Z,1.10
2023-04-30T12:18:56.221Z,1.30
2023-04-30T12:21:29.622Z,1.30
2023-04-30T12:23:59.088Z,1.48
2023-04-30T12:26:37.438Z,1.15
2023-04-30T12:29:06.803Z,1.40
2023-04-30T12:31:35.697Z,1.17
2023-04-30T12:34:08.243Z,1.23
2023-04-30T12:36:38.825Z,1.50
2023-04-30T12:39:14.088Z,1.13
2023-04-30T12:41:45.742Z,1.20
2023-04-30T12:44:21.607Z,1.25
2023-04-30T12:46:51.775Z,1.35
2023-04-30T12:49:28.176Z,1.30
2023-04-30T12:52:08.128Z,1.48
2023-04-30T12:54:38.562Z,0.85
2023-04-30T12:57:08.636Z,0.93
2023-04-30T12:59:40.011Z,0.70
2023-04-30T13:02:10.262Z,1.10
2023-04-30T13:04:39.408Z,1.20
2023-04-30T13:07:11.014Z,1.25
2023-04-30T13:09:40.068Z,1.00
2023-04-30T13:12:08.735Z,1.40
2023-04-30T13:14:37.377Z,1.00
2023-04-30T13:17:07.553Z,1.00
2023-04-30T13:19:36.198Z,1.30
2023-04-30T13:22:04.367Z,1.15
2023-04-30T13:24:34.576Z,1.35
2023-04-30T13:27:04.930Z,1.30
2023-04-30T13:29:33.429Z,1.30
2023-04-30T13:32:02.412Z,1.40
2023-04-30T13:34:31.501Z,1.75
2023-04-30T13:37:00.464Z,1.95
2023-04-30T13:39:29.200Z,1.73
2023-04-30T13:41:59.402Z,1.23
2023-04-30T13:44:28.232Z,1.30
2023-04-30T13:46:57.352Z,1.20
2023-04-30T13:49:26.134Z,1.60
2023-04-30T13:51:54.752Z,1.33
2023-04-30T13:54:23.803Z,1.40
2023-04-30T13:56:52.462Z,1.55
2023-04-30T13:59:23.833Z,1.27
2023-04-30T14:01:52.493Z,1.25
2023-04-30T14:04:21.737Z,1.10
2023-04-30T14:06:50.390Z,1.45
2023-04-30T14:09:20.703Z,1.40
2023-04-30T14:11:49.653Z,1.20
2023-04-30T14:14:18.194Z,1.30
2023-04-30T14:16:48.784Z,1.23
2023-04-30T14:19:17.925Z,1.30
2023-04-30T14:21:46.965Z,0.90
2023-04-30T14:24:16.033Z,1.30
2023-04-30T14:26:45.710Z,1.30
2023-04-30T14:29:13.963Z,1.25
2023-04-30T14:31:42.842Z,1.40
2023-04-30T14:34:14.121Z,0.98
2023-04-30T14:36:43.402Z,1.20
2023-04-30T14:39:12.378Z,1.00
2023-04-30T14:41:40.904Z,1.00
2023-04-30T14:44:09.987Z,0.90
2023-04-30T14:46:38.654Z,0.93
2023-04-30T14:49:06.963Z,1.02
2023-04-30T14:51:37.830Z,1.20
2023-04-30T14:54:06.453Z,1.08
2023-04-30T14:56:35.010Z,0.88
2023-04-30T14:59:05.652Z,0.95
2023-04-30T15:01:34.414Z,0.80
2023-04-30T15:04:04.189Z,0.95
2023-04-30T15:06:32.910Z,1.60
2023-04-30T15:09:03.204Z,1.02
2023-04-30T15:11:32.065Z,0.88
2023-04-30T15:14:00.718Z,1.40
2023-04-30T15:16:29.669Z,1.00
2023-04-30T15:18:58.101Z,1.00
2023-04-30T15:21:27.395Z,1.27
2023-04-30T15:23:56.536Z,1.20
2023-04-30T15:26:27.579Z,1.00
2023-04-30T15:28:57.194Z,0.93
2023-04-30T15:31:26.223Z,1.20
2023-04-30T15:33:54.890Z,0.88
2023-04-30T15:36:24.136Z,1.10
2023-04-30T15:38:52.613Z,1.00
2023-04-30T15:41:21.867Z,1.00
2023-04-30T15:43:52.340Z,0.85
2023-04-30T15:46:21.345Z,0.90
2023-04-30T15:48:49.752Z,0.90
2023-04-30T15:51:18.199Z,0.77
2023-04-30T15:53:48.252Z,1.13
2023-04-30T15:56:19.259Z,1.05
2023-04-30T15:58:47.896Z,0.77
2023-04-30T16:01:17.766Z,0.88
2023-04-30T16:03:46.611Z,1.00
2023-04-30T16:06:15.620Z,0.80
2023-04-30T16:08:44.754Z,0.90
2023-04-30T16:11:13.110Z,0.82
2023-04-30T16:13:41.531Z,0.90
2023-04-30T16:16:11.277Z,0.80
2023-04-30T16:18:42.845Z,0.85
2023-04-30T16:21:11.666Z,0.80
2023-04-30T16:23:41.246Z,0.80
2023-04-30T16:26:10.043Z,1.00
2023-04-30T16:28:38.362Z,0.80
2023-04-30T16:31:17.043Z,0.80
2023-04-30T16:33:47.835Z,0.82
2023-04-30T16:36:16.520Z,0.70
2023-04-30T16:38:46.532Z,0.85
2023-04-30T16:41:16.922Z,1.00
2023-04-30T16:43:45.949Z,0.93
2023-04-30T16:46:14.627Z,1.00
2023-04-30T16:48:47.249Z,0.63
2023-04-30T16:51:18.229Z,0.67
2023-04-30T16:53:46.940Z,1.00
2023-04-30T16:56:16.562Z,1.00
2023-04-30T16:58:44.936Z,0.90
2023-04-30T17:01:13.190Z,0.90
2023-04-30T17:03:41.790Z,0.90
2023-04-30T17:06:10.303Z,0.82
2023-04-30T17:08:40.710Z,0.80
2023-04-30T17:11:09.254Z,1.00
2023-04-30T17:13:38.286Z,0.88
2023-04-30T17:16:07.395Z,0.90
2023-04-30T17:18:36.167Z,0.73
2023-04-30T17:21:04.511Z,1.25
2023-04-30T17:23:33.393Z,1.20
2023-04-30T17:26:04.036Z,0.75
2023-04-30T17:28:33.250Z,0.80
2023-04-30T17:31:07.268Z,0.98
2023-04-30T17:36:05.179Z,0.80
2023-04-30T17:38:33.678Z,0.57
2023-04-30T17:41:03.695Z,0.90
2023-04-30T17:43:32.246Z,0.80
2023-04-30T17:46:00.507Z,0.80
2023-04-30T17:48:29.324Z,0.70
2023-04-30T17:50:58.015Z,0.82
2023-04-30T17:53:26.364Z,1.13
2023-04-30T17:55:55.004Z,0.80
2023-04-30T17:58:24.793Z,0.75
2023-04-30T18:00:56.768Z,0.90
2023-04-30T18:03:25.700Z,0.80
2023-04-30T18:05:54.288Z,0.60
2023-04-30T18:08:22.909Z,0.90
2023-04-30T18:10:51.695Z,1.00
2023-04-30T18:13:20.325Z,0.80
2023-04-30T18:15:50.156Z,0.80
2023-04-30T18:18:18.632Z,0.85
2023-04-30T18:20:47.721Z,0.70
2023-04-30T18:23:17.050Z,0.63
2023-04-30T18:25:45.788Z,1.20
2023-04-30T18:28:14.819Z,0.88
2023-04-30T18:30:43.605Z,1.00
2023-04-30T18:33:13.236Z,1.35
2023-04-30T18:35:41.978Z,0.85
2023-04-30T18:38:10.708Z,0.80
2023-04-30T18:40:39.666Z,1.10
2023-04-30T18:43:09.005Z,0.80
2023-04-30T18:45:37.599Z,0.77
2023-04-30T18:48:07.720Z,0.82
2023-04-30T18:50:37.545Z,0.93
2023-04-30T18:53:07.160Z,0.80
2023-04-30T18:55:36.040Z,0.85
2023-04-30T18:58:05.138Z,1.05
2023-04-30T19:00:34.170Z,0.80
2023-04-30T19:03:05.663Z,0.80
2023-04-30T19:05:38.157Z,0.80
2023-04-30T19:08:08.255Z,1.00
2023-04-30T19:10:37.694Z,1.08
2023-04-30T19:13:06.197Z,1.05
2023-04-30T19:15:35.562Z,0.80
2023-04-30T19:18:03.985Z,0.80
2023-04-30T19:20:32.598Z,1.23
2023-04-30T19:23:03.123Z,1.45
2023-04-30T19:25:32.703Z,1.00
2023-04-30T19:28:01.970Z,1.05
2023-04-30T19:30:30.699Z,1.30
2023-04-30T19:32:59.848Z,1.52
2023-04-30T19:35:28.815Z,1.45
2023-04-30T19:37:57.256Z,1.70
2023-04-30T19:40:27.300Z,1.77
2023-04-30T19:42:55.525Z,1.40
2023-04-30T19:45:24.585Z,1.52
2023-04-30T19:47:53.469Z,1.25
2023-04-30T19:50:22.929Z,1.35
2023-04-30T19:52:52.201Z,1.80
2023-04-30T19:55:21.173Z,1.83
2023-04-30T19:57:50.905Z,2.78
2023-04-30T20:00:19.335Z,2.22
2023-04-30T20:02:47.790Z,1.70
2023-04-30T20:05:16.388Z,1.08
2023-04-30T20:07:45.265Z,1.45
2023-04-30T20:10:13.969Z,1.80
2023-04-30T20:12:43.766Z,1.17
2023-04-30T20:15:14.526Z,1.80
2023-04-30T20:17:42.923Z,1.48
2023-04-30T20:20:13.232Z,1.65
2023-04-30T20:22:41.910Z,1.80
2023-04-30T20:25:11.893Z,1.98
2023-04-30T20:27:40.895Z,1.88
2023-04-30T20:30:10.692Z,1.67
2023-04-30T20:32:42.043Z,1.52
2023-04-30T20:35:11.133Z,1.35
2023-04-30T20:37:40.067Z,1.60
2023-04-30T20:40:10.007Z,1.58
2023-04-30T20:42:41.250Z,2.30
2023-04-30T20:45:12.341Z,2.13
2023-04-30T20:47:43.589Z,2.10
2023-04-30T20:50:13.061Z,1.80
2023-04-30T20:52:41.779Z,2.40
2023-04-30T20:55:12.643Z,3.42
2023-04-30T20:57:41.429Z,2.75
2023-04-30T21:00:12.127Z,1.98
2023-04-30T21:02:42.550Z,1.40
2023-04-30T21:05:11.780Z,1.33
2023-04-30T21:07:40.528Z,2.05
2023-04-30T21:10:09.939Z,2.10
2023-04-30T21:12:39.087Z,1.52
2023-04-30T21:15:09.810Z,1.67
2023-04-30T21:17:39.089Z,1.63
2023-04-30T21:20:12.085Z,1.42
2023-04-30T21:22:41.480Z,1.50
2023-04-30T21:25:13.263Z,1.50
2023-04-30T21:27:41.856Z,1.70
2023-04-30T21:30:12.300Z,1.40
2023-04-30T21:32:41.119Z,2.03
2023-04-30T21:35:12.444Z,2.08
2023-04-30T21:37:41.359Z,2.47
2023-04-30T21:40:11.275Z,6.25
2023-04-30T21:42:39.978Z,1.70
2023-04-30T21:47:39.430Z,2.25
2023-04-30T21:50:10.117Z,2.30
2023-04-30T21:52:41.766Z,4.20
2023-04-30T21:55:11.456Z,4.45
2023-04-30T21:57:40.768Z,2.33
2023-04-30T22:00:14.794Z,4.32
2023-04-30T22:02:43.998Z,5.07
2023-04-30T22:05:14.682Z,1.90
2023-04-30T22:07:45.055Z,1.88
2023-04-30T22:10:15.048Z,1.70
2023-04-30T22:12:47.316Z,7.38
2023-04-30T22:15:18.213Z,2.25
2023-04-30T22:17:48.931Z,1.95
2023-04-30T22:20:20.046Z,1.77
2023-04-30T22:22:50.614Z,2.35
2023-04-30T22:25:20.327Z,2.00
2023-04-30T22:27:49.473Z,1.38
2023-04-30T22:30:20.666Z,2.33
2023-04-30T22:32:49.428Z,1.73
2023-04-30T22:35:20.298Z,3.22
2023-04-30T22:37:50.601Z,4.45
2023-04-30T22:40:19.643Z,1.23
2023-04-30T22:42:49.068Z,1.48
2023-04-30T22:45:18.446Z,2.20
2023-04-30T22:47:47.986Z,1.42
2023-04-30T22:50:18.702Z,1.05
2023-04-30T22:52:53.726Z,1.77
2023-04-30T22:55:23.753Z,4.40
2023-04-30T22:57:52.860Z,1.73
2023-04-30T23:00:26.441Z,3.15
2023-04-30T23:02:55.860Z,1.58
2023-04-30T23:05:26.590Z,2.05
2023-04-30T23:07:56.834Z,1.52
2023-04-30T23:10:25.891Z,1.40
2023-04-30T23:12:56.884Z,1.40
2023-04-30T23:15:26.793Z,1.52
2023-04-30T23:17:57.262Z,2.00
2023-04-30T23:20:26.824Z,1.52
2023-04-30T23:22:58.528Z,1.40
2023-04-30T23:25:27.320Z,3.00
2023-04-30T23:27:56.773Z,1.70
2023-04-30T23:30:26.363Z,1.92
2023-04-30T23:32:55.685Z,2.75
2023-04-30T23:35:24.702Z,1.70
2023-04-30T23:37:54.048Z,1.58
2023-04-30T23:40:25.229Z,1.45
2023-04-30T23:42:54.480Z,1.58
2023-04-30T23:45:23.852Z,1.65
2023-04-30T23:47:53.653Z,1.25
2023-04-30T23:50:22.598Z,1.98
2023-04-30T23:52:51.793Z,1.98
2023-04-30T23:55:20.880Z,1.95
2023-04-30T23:57:53.098Z,1.50
